createdAt,value
2023-04-12T00:02:45.782Z,15.03
2023-04-12T00:05:34.430Z,15.40
2023-04-12T00:08:32.895Z,17.00
2023-04-12T00:11:20.284Z,22.80
2023-04-12T00:14:07.680Z,16.43
2023-04-12T00:16:55.398Z,13.10
2023-04-12T00:19:43.058Z,12.70
2023-04-12T00:22:30.471Z,11.47
2023-04-12T00:25:17.843Z,10.57
2023-04-12T00:28:05.279Z,11.20
2023-04-12T00:30:52.670Z,9.73
2023-04-12T00:33:40.263Z,14.67
2023-04-12T00:36:27.857Z,9.93
2023-04-12T00:39:15.192Z,12.83
2023-04-12T00:42:05.939Z,11.53
2023-04-12T00:44:53.264Z,12.53
2023-04-12T00:47:43.273Z,7.70
2023-04-12T00:50:30.630Z,11.07
2023-04-12T00:53:18.903Z,9.43
2023-04-12T00:56:07.635Z,8.47
2023-04-12T00:58:55.267Z,6.07
2023-04-12T01:01:42.717Z,10.60
2023-04-12T01:04:30.210Z,7.77
2023-04-12T01:07:37.180Z,11.27
2023-04-12T01:10:27.336Z,11.53
2023-04-12T01:13:36.258Z,10.23
2023-04-12T01:16:23.656Z,10.00
2023-04-12T01:19:34.874Z,11.87
2023-04-12T01:22:28.074Z,5.77
2023-04-12T01:25:44.414Z,8.93
2023-04-12T01:28:34.187Z,7.77
2023-04-12T01:31:21.860Z,13.70
2023-04-12T01:34:11.287Z,5.93
2023-04-12T01:37:01.760Z,7.87
2023-04-12T01:39:49.234Z,7.10
2023-04-12T01:42:36.630Z,6.07
2023-04-12T01:45:24.021Z,7.03
2023-04-12T01:48:12.023Z,6.90
2023-04-12T01:50:59.364Z,5.47
2023-04-12T01:53:52.015Z,7.70
2023-04-12T01:56:40.794Z,5.73
2023-04-12T01:59:31.174Z,5.53
2023-04-12T02:02:19.392Z,5.90
2023-04-12T02:05:08.041Z,10.50
2023-04-12T02:07:55.421Z,7.67
2023-04-12T02:10:42.795Z,6.23
2023-04-12T02:13:30.154Z,5.53
2023-04-12T02:16:17.740Z,8.33
2023-04-12T02:19:08.412Z,6.30
2023-04-12T02:21:55.821Z,4.77
2023-04-12T02:24:43.166Z,5.50
2023-04-12T02:27:30.502Z,6.30
2023-04-12T02:30:17.868Z,5.27
2023-04-12T02:33:06.141Z,6.67
2023-04-12T02:35:53.571Z,5.03
2023-04-12T02:38:40.937Z,6.67
2023-04-12T02:41:28.346Z,5.97
2023-04-12T02:44:15.840Z,5.90
2023-04-12T02:47:03.474Z,7.50
2023-04-12T02:49:50.822Z,4.60
2023-04-12T02:52:38.659Z,5.03
2023-04-12T02:55:27.072Z,6.70
2023-04-12T02:58:14.425Z,6.33
2023-04-12T03:01:01.980Z,5.07
2023-04-12T03:03:49.389Z,5.17
2023-04-12T03:06:36.848Z,7.33
2023-04-12T03:09:25.080Z,5.87
2023-04-12T03:12:12.483Z,5.47
2023-04-12T03:14:59.828Z,3.27
2023-04-12T03:17:47.517Z,5.60
2023-04-12T03:20:35.024Z,6.30
2023-04-12T03:23:22.464Z,8.57
2023-04-12T03:26:09.830Z,7.33
2023-04-12T03:29:00.529Z,5.40
2023-04-12T03:31:47.861Z,7.23
2023-04-12T03:34:35.195Z,7.20
2023-04-12T03:37:22.543Z,7.40
2023-04-12T03:40:10.714Z,8.67
2023-04-12T03:42:59.922Z,7.97
2023-04-12T03:45:48.796Z,5.10
2023-04-12T03:48:36.288Z,5.20
2023-04-12T03:51:26.587Z,9.43
2023-04-12T03:54:14.198Z,9.87
2023-04-12T03:57:02.028Z,7.47
2023-04-12T03:59:49.396Z,5.07
2023-04-12T04:02:37.101Z,7.40
2023-04-12T04:05:24.676Z,3.90
2023-04-12T04:08:12.061Z,4.37
2023-04-12T04:10:59.758Z,6.23
2023-04-12T04:13:47.114Z,5.37
2023-04-12T04:16:34.668Z,5.20
2023-04-12T04:19:22.305Z,6.27
2023-04-12T04:22:10.037Z,4.80
2023-04-12T04:24:58.227Z,10.87
2023-04-12T04:27:45.976Z,5.47
2023-04-12T04:30:34.118Z,5.37
2023-04-12T04:33:21.529Z,9.70
2023-04-12T04:36:09.340Z,5.63
2023-04-12T04:39:01.050Z,4.70
2023-04-12T04:41:54.318Z,5.40
2023-04-12T04:44:41.693Z,7.53
2023-04-12T04:47:30.358Z,7.73
2023-04-12T04:50:17.763Z,7.87
2023-04-12T04:53:05.355Z,4.57
2023-04-12T04:55:58.271Z,7.57
2023-04-12T04:58:45.837Z,4.63
2023-04-12T05:01:36.366Z,4.83
2023-04-12T05:04:23.830Z,4.53
2023-04-12T05:07:13.124Z,3.53
2023-04-12T05:10:00.479Z,6.37
2023-04-12T05:12:48.239Z,4.53
2023-04-12T05:15:35.872Z,4.33
2023-04-12T05:18:23.337Z,3.90
2023-04-12T05:21:10.825Z,7.27
2023-04-12T05:23:58.164Z,4.13
2023-04-12T05:26:45.644Z,5.53
2023-04-12T05:29:33.004Z,5.47
2023-04-12T05:32:20.592Z,7.13
2023-04-12T05:35:08.133Z,7.03
2023-04-12T05:37:55.573Z,6.40
2023-04-12T05:40:44.125Z,7.27
2023-04-12T05:43:31.653Z,6.83
2023-04-12T05:46:19.106Z,5.33
2023-04-12T05:49:06.541Z,4.73
2023-04-12T05:51:53.864Z,5.67
2023-04-12T05:54:41.694Z,6.60
2023-04-12T05:57:29.086Z,8.30
2023-04-12T06:00:17.466Z,2.70
2023-04-12T06:03:05.115Z,5.80
2023-04-12T06:05:53.274Z,6.03
2023-04-12T06:08:41.405Z,7.73
2023-04-12T06:11:28.924Z,9.40
2023-04-12T06:14:16.343Z,7.10
2023-04-12T06:17:03.771Z,6.83
2023-04-12T06:19:51.175Z,5.03
2023-04-12T06:22:38.718Z,5.87
2023-04-12T06:25:26.505Z,6.73
2023-04-12T06:28:13.874Z,4.37
2023-04-12T06:31:01.869Z,5.70
2023-04-12T06:33:50.358Z,2.33
2023-04-12T06:36:40.007Z,3.47
2023-04-12T06:39:27.442Z,6.83
2023-04-12T06:42:15.039Z,5.77
2023-04-12T06:45:02.433Z,6.13
2023-04-12T06:47:49.896Z,7.27
2023-04-12T06:50:37.271Z,3.60
2023-04-12T06:53:24.618Z,3.33
2023-04-12T06:56:11.950Z,3.03
2023-04-12T06:58:59.636Z,5.27
2023-04-12T07:01:47.487Z,3.33
2023-04-12T07:04:35.170Z,3.23
2023-04-12T07:07:22.637Z,4.00
2023-04-12T07:10:10.617Z,4.57
2023-04-12T07:13:02.897Z,5.83
2023-04-12T07:15:50.846Z,2.70
2023-04-12T07:18:39.778Z,2.90
2023-04-12T07:21:27.527Z,3.30
2023-04-12T07:24:14.925Z,5.33
2023-04-12T07:27:02.292Z,3.07
2023-04-12T07:29:52.091Z,4.13
2023-04-12T07:32:39.648Z,3.33
2023-04-12T07:35:27.463Z,3.33
2023-04-12T07:38:16.686Z,2.57
2023-04-12T07:41:04.493Z,5.33
2023-04-12T07:43:51.952Z,5.77
2023-04-12T07:46:40.289Z,3.80
2023-04-12T07:49:27.799Z,2.33
2023-04-12T07:52:15.414Z,4.63
2023-04-12T07:55:02.746Z,5.63
2023-04-12T07:57:50.245Z,5.00
2023-04-12T08:00:37.587Z,7.17
2023-04-12T08:03:25.042Z,4.27
2023-04-12T08:06:12.762Z,2.70
2023-04-12T08:09:00.289Z,7.57
2023-04-12T08:11:47.724Z,5.00
2023-04-12T08:14:35.107Z,4.87
2023-04-12T08:17:22.510Z,3.67
2023-04-12T08:20:10.540Z,3.10
2023-04-12T08:22:58.232Z,3.53
2023-04-12T08:25:45.579Z,2.93
2023-04-12T08:28:33.517Z,4.07
2023-04-12T08:31:21.061Z,4.67
2023-04-12T08:34:08.454Z,3.57
2023-04-12T08:36:59.130Z,3.23
2023-04-12T08:39:46.466Z,6.23
2023-04-12T08:42:37.191Z,6.10
2023-04-12T08:45:26.334Z,4.03
2023-04-12T08:48:14.296Z,3.73
2023-04-12T08:51:02.323Z,6.03
2023-04-12T08:53:50.943Z,5.40
2023-04-12T08:56:40.500Z,6.87
2023-04-12T08:59:28.261Z,4.40
2023-04-12T09:02:15.959Z,6.30
2023-04-12T09:05:03.658Z,4.13
2023-04-12T09:07:51.131Z,4.33
2023-04-12T09:10:39.063Z,6.00
2023-04-12T09:13:33.489Z,4.30
2023-04-12T09:16:36.334Z,6.07
2023-04-12T09:19:34.042Z,4.03
2023-04-12T09:22:33.366Z,3.13
2023-04-12T09:25:35.711Z,5.73
2023-04-12T09:28:26.930Z,6.40
2023-04-12T09:31:19.284Z,2.87
2023-04-12T09:34:09.863Z,4.33
2023-04-12T09:36:57.885Z,6.17
2023-04-12T09:39:45.301Z,4.27
2023-04-12T09:42:36.370Z,3.93
2023-04-12T09:45:25.392Z,5.07
2023-04-12T09:48:30.844Z,2.13
2023-04-12T09:51:25.365Z,3.67
2023-04-12T09:54:12.854Z,2.83
2023-04-12T09:57:00.977Z,4.20
2023-04-12T09:59:51.175Z,3.67
2023-04-12T10:02:38.936Z,5.57
2023-04-12T10:05:27.589Z,2.43
2023-04-12T10:08:17.694Z,5.13
2023-04-12T10:11:05.357Z,3.77
2023-04-12T10:13:53.035Z,3.17
2023-04-12T10:16:41.972Z,3.70
2023-04-12T10:19:30.406Z,7.30
2023-04-12T10:22:18.245Z,4.97
2023-04-12T10:25:05.922Z,4.50
2023-04-12T10:27:53.695Z,5.67
2023-04-12T10:30:41.699Z,3.37
2023-04-12T10:33:30.906Z,5.00
2023-04-12T10:36:18.428Z,6.83
2023-04-12T10:39:10.466Z,5.17
2023-04-12T10:42:15.984Z,7.73
2023-04-12T10:45:22.375Z,7.23
2023-04-12T10:48:29.398Z,3.83
2023-04-12T10:51:28.104Z,4.87
2023-04-12T10:54:18.673Z,4.73
2023-04-12T10:57:06.196Z,4.27
2023-04-12T10:59:56.548Z,6.07
2023-04-12T11:03:04.086Z,4.13
2023-04-12T11:06:20.136Z,4.63
2023-04-12T11:09:22.315Z,3.83
2023-04-12T11:12:17.010Z,4.73
2023-04-12T11:15:06.050Z,5.00
2023-04-12T11:17:59.629Z,3.23
2023-04-12T11:20:47.110Z,5.50
2023-04-12T11:23:36.255Z,3.50
2023-04-12T11:26:24.076Z,2.63
2023-04-12T11:29:13.079Z,3.63
2023-04-12T11:32:03.054Z,4.37
2023-04-12T11:34:51.052Z,3.77
2023-04-12T11:37:38.953Z,5.37
2023-04-12T11:40:26.430Z,3.40
2023-04-12T11:43:19.194Z,5.23
2023-04-12T11:46:06.883Z,2.73
2023-04-12T11:48:54.319Z,6.10
2023-04-12T11:51:41.897Z,3.13
2023-04-12T11:54:30.253Z,4.97
2023-04-12T11:57:20.805Z,6.07
2023-04-12T12:00:08.912Z,4.83
2023-04-12T12:05:52.212Z,4.63
2023-04-12T12:08:39.978Z,5.40
2023-04-12T12:11:27.706Z,6.73
2023-04-12T12:14:19.101Z,5.87
2023-04-12T12:17:13.687Z,5.33
2023-04-12T12:20:02.250Z,5.53
2023-04-12T12:22:49.753Z,4.83
2023-04-12T12:25:37.188Z,3.73
2023-04-12T12:28:25.104Z,6.43
2023-04-12T12:31:12.571Z,8.20
2023-04-12T12:34:04.249Z,3.70
2023-04-12T12:36:56.832Z,6.50
2023-04-12T12:40:07.240Z,5.23
2023-04-12T12:42:55.805Z,4.37
2023-04-12T12:45:43.150Z,3.57
2023-04-12T12:48:30.585Z,5.00
2023-04-12T12:51:19.341Z,5.00
2023-04-12T12:54:07.597Z,4.90
2023-04-12T12:56:54.971Z,6.63
2023-04-12T12:59:42.299Z,5.60
2023-04-12T13:02:29.849Z,6.17
2023-04-12T13:05:17.461Z,4.80
2023-04-12T13:08:04.883Z,4.77
2023-04-12T13:10:52.573Z,5.17
2023-04-12T13:13:39.900Z,3.93
2023-04-12T13:16:27.489Z,6.17
2023-04-12T13:19:16.049Z,5.07
2023-04-12T13:22:03.391Z,4.70
2023-04-12T13:24:50.780Z,5.87
2023-04-12T13:27:38.336Z,4.40
2023-04-12T13:30:25.687Z,5.00
2023-04-12T13:33:17.290Z,3.67
2023-04-12T13:36:06.901Z,4.33
2023-04-12T13:38:54.285Z,4.83
2023-04-12T13:41:41.649Z,7.63
2023-04-12T13:44:29.141Z,4.70
2023-04-12T13:47:17.805Z,3.77
2023-04-12T13:50:05.363Z,5.80
2023-04-12T13:52:52.724Z,4.07
2023-04-12T13:55:40.445Z,5.60
2023-04-12T13:58:27.808Z,4.47
2023-04-12T14:01:15.141Z,5.00
2023-04-12T14:04:03.720Z,3.90
2023-04-12T14:06:51.342Z,4.67
2023-04-12T14:09:38.707Z,4.20
2023-04-12T14:12:26.186Z,3.53
2023-04-12T14:15:13.827Z,4.00
2023-04-12T14:18:01.276Z,4.67
2023-04-12T14:20:54.953Z,3.87
2023-04-12T14:23:42.387Z,4.13
2023-04-12T14:26:29.773Z,3.63
2023-04-12T14:29:17.384Z,3.50
2023-04-12T14:32:04.716Z,4.10
2023-04-12T14:34:52.160Z,4.83
2023-04-12T14:37:39.951Z,2.60
2023-04-12T14:40:27.404Z,3.37
2023-04-12T14:43:14.723Z,3.43
2023-04-12T14:46:02.220Z,3.70
2023-04-12T14:48:49.619Z,4.40
2023-04-12T14:51:36.989Z,2.43
2023-04-12T14:54:24.350Z,2.00
2023-04-12T14:57:12.354Z,4.47
2023-04-12T15:00:00.318Z,3.40
2023-04-12T15:02:48.833Z,2.53
2023-04-12T15:05:36.492Z,4.57
2023-04-12T15:08:23.881Z,5.57
2023-04-12T15:11:11.854Z,3.20
2023-04-12T15:13:59.534Z,2.67
2023-04-12T15:16:49.070Z,3.80
2023-04-12T15:19:36.749Z,4.23
2023-04-12T15:22:25.864Z,4.67
2023-04-12T15:25:13.211Z,4.97
2023-04-12T15:28:01.823Z,2.67
2023-04-12T15:30:49.250Z,3.80
2023-04-12T15:33:37.745Z,3.40
2023-04-12T15:36:34.012Z,5.37
2023-04-12T15:39:21.481Z,4.40
2023-04-12T15:42:08.880Z,3.57
2023-04-12T15:44:56.287Z,3.93
2023-04-12T15:47:43.699Z,2.60
2023-04-12T15:50:31.086Z,5.23
2023-04-12T15:53:22.075Z,4.27
2023-04-12T15:56:11.012Z,2.70
2023-04-12T15:58:58.987Z,3.23
2023-04-12T16:01:51.120Z,5.13
2023-04-12T16:04:39.081Z,4.03
2023-04-12T16:07:28.797Z,4.70
2023-04-12T16:10:19.819Z,4.17
2023-04-12T16:13:09.137Z,5.53
2023-04-12T16:15:56.558Z,5.00
2023-04-12T16:18:44.517Z,4.77
2023-04-12T16:21:32.129Z,6.53
2023-04-12T16:24:19.482Z,3.23
2023-04-12T16:27:07.307Z,5.33
2023-04-12T16:29:54.658Z,3.93
2023-04-12T16:32:42.673Z,3.70
2023-04-12T16:35:30.113Z,4.23
2023-04-12T16:38:17.892Z,6.50
2023-04-12T16:41:05.546Z,6.10
2023-04-12T16:43:54.942Z,3.87
2023-04-12T16:46:42.334Z,4.13
2023-04-12T16:49:29.872Z,6.00
2023-04-12T16:52:17.273Z,5.30
2023-04-12T16:55:04.848Z,7.13
2023-04-12T16:57:53.682Z,5.53
2023-04-12T17:00:42.926Z,8.53
2023-04-12T17:03:30.694Z,7.10
2023-04-12T17:06:19.355Z,5.33
2023-04-12T17:09:06.708Z,3.90
2023-04-12T17:11:54.119Z,5.27
2023-04-12T17:14:41.501Z,5.40
2023-04-12T17:17:28.852Z,5.83
2023-04-12T17:20:16.777Z,4.13
2023-04-12T17:23:04.591Z,4.27
2023-04-12T17:25:51.937Z,4.43
2023-04-12T17:28:39.667Z,5.50
2023-04-12T17:31:27.656Z,4.97
2023-04-12T17:34:15.029Z,7.90
2023-04-12T17:37:04.241Z,6.87
2023-04-12T17:39:51.881Z,5.33
2023-04-12T17:42:39.778Z,6.37
2023-04-12T17:45:27.224Z,4.40
2023-04-12T17:48:15.131Z,6.53
2023-04-12T17:51:03.178Z,5.73
2023-04-12T17:53:50.613Z,6.57
2023-04-12T17:56:37.943Z,8.23
2023-04-12T17:59:25.630Z,5.63
2023-04-12T18:02:13.186Z,7.00
2023-04-12T18:05:00.694Z,5.63
2023-04-12T18:07:48.080Z,6.40
2023-04-12T18:10:36.722Z,7.70
2023-04-12T18:13:24.228Z,7.43
2023-04-12T18:16:12.084Z,7.10
2023-04-12T18:18:59.999Z,6.20
2023-04-12T18:21:48.321Z,6.60
2023-04-12T18:24:37.322Z,6.13
2023-04-12T18:27:26.115Z,8.53
2023-04-12T18:30:15.124Z,7.07
2023-04-12T18:33:03.877Z,6.20
2023-04-12T18:35:51.521Z,6.80
2023-04-12T18:38:39.444Z,6.97
2023-04-12T18:41:26.859Z,8.37
2023-04-12T18:44:15.416Z,5.37
2023-04-12T18:47:02.820Z,8.20
2023-04-12T18:49:50.238Z,9.10
2023-04-12T18:52:38.592Z,8.33
2023-04-12T18:55:25.990Z,8.43
2023-04-12T18:58:13.371Z,5.93
2023-04-12T19:01:00.790Z,6.53
2023-04-12T19:03:48.536Z,9.63
2023-04-12T19:06:36.057Z,11.13
2023-04-12T19:09:23.409Z,7.47
2023-04-12T19:12:11.168Z,8.83
2023-04-12T19:14:58.538Z,10.93
2023-04-12T19:17:46.088Z,10.27
2023-04-12T19:20:33.489Z,9.57
2023-04-12T19:23:21.199Z,7.10
2023-04-12T19:26:08.747Z,10.93
2023-04-12T19:28:58.680Z,8.47
2023-04-12T19:31:51.858Z,7.77
2023-04-12T19:34:39.768Z,8.40
2023-04-12T19:37:28.372Z,10.27
2023-04-12T19:40:15.827Z,12.73
2023-04-12T19:43:03.176Z,8.70
2023-04-12T19:45:50.782Z,9.27
2023-04-12T19:48:38.259Z,11.60
2023-04-12T19:51:25.692Z,8.77
2023-04-12T19:54:13.353Z,9.50
2023-04-12T19:57:00.748Z,9.47
2023-04-12T19:59:48.077Z,10.83
2023-04-12T20:02:35.603Z,13.33
2023-04-12T20:05:23.923Z,10.97
2023-04-12T20:08:11.382Z,12.47
2023-04-12T20:10:58.786Z,11.07
2023-04-12T20:13:46.174Z,9.50
2023-04-12T20:16:33.639Z,10.33
2023-04-12T20:19:20.999Z,11.67
2023-04-12T20:22:08.372Z,12.20
2023-04-12T20:24:58.082Z,12.97
2023-04-12T20:27:51.440Z,10.20
2023-04-12T20:30:38.936Z,11.50
2023-04-12T20:33:26.632Z,9.57
2023-04-12T20:36:15.721Z,12.97
2023-04-12T20:39:03.074Z,9.77
2023-04-12T20:41:51.423Z,9.50
2023-04-12T20:44:38.872Z,8.80
2023-04-12T20:47:27.387Z,5.93
2023-04-12T20:50:15.628Z,7.83
2023-04-12T20:53:03.031Z,7.37
2023-04-12T20:55:50.424Z,7.43
2023-04-12T20:58:37.987Z,7.90
2023-04-12T21:01:25.378Z,8.70
2023-04-12T21:04:15.553Z,9.77
2023-04-12T21:07:03.177Z,7.83
2023-04-12T21:09:50.531Z,7.10
2023-04-12T21:12:37.872Z,8.97
2023-04-12T21:15:25.299Z,7.97
2023-04-12T21:18:12.871Z,8.60
2023-04-12T21:21:00.708Z,7.30
2023-04-12T21:23:48.411Z,7.97
2023-04-12T21:26:35.868Z,9.73
2023-04-12T21:29:23.748Z,7.27
2023-04-12T21:32:11.157Z,6.80
2023-04-12T21:34:58.589Z,6.97
2023-04-12T21:37:46.336Z,5.90
2023-04-12T21:40:33.705Z,5.67
2023-04-12T21:43:21.046Z,7.70
2023-04-12T21:46:08.953Z,7.60
2023-04-12T21:48:57.648Z,6.57
2023-04-12T21:51:46.903Z,8.03
2023-04-12T21:54:36.822Z,6.27
2023-04-12T21:57:24.285Z,7.47
2023-04-12T22:00:12.288Z,5.57
2023-04-12T22:03:00.025Z,7.40
2023-04-12T22:06:00.835Z,6.57
2023-04-12T22:08:52.023Z,5.97
2023-04-12T22:11:39.379Z,9.20
2023-04-12T22:14:28.645Z,7.93
2023-04-12T22:17:17.322Z,7.17
2023-04-12T22:20:08.182Z,9.53
2023-04-12T22:22:57.146Z,8.33
2023-04-12T22:25:45.399Z,8.80
2023-04-12T22:28:32.857Z,8.00
2023-04-12T22:31:22.663Z,8.67
2023-04-12T22:34:10.751Z,7.10
2023-04-12T22:37:03.381Z,10.13
2023-04-12T22:39:52.501Z,12.53
2023-04-12T22:42:47.261Z,9.80
2023-04-12T22:45:35.740Z,8.53
2023-04-12T22:48:24.824Z,9.97
2023-04-12T22:51:12.638Z,7.70
2023-04-12T22:54:00.360Z,12.97
2023-04-12T22:56:47.902Z,12.93
2023-04-12T22:59:35.370Z,10.43
2023-04-12T23:02:22.791Z,10.83
2023-04-12T23:05:10.362Z,9.47
2023-04-12T23:07:57.788Z,10.13
2023-04-12T23:10:45.384Z,9.83
2023-04-12T23:13:36.145Z,12.30
2023-04-12T23:16:24.580Z,9.47
2023-04-12T23:19:12.610Z,12.10
2023-04-12T23:21:59.939Z,11.10
2023-04-12T23:24:50.878Z,10.23
2023-04-12T23:27:39.110Z,10.87
2023-04-12T23:30:29.535Z,9.80
2023-04-12T23:33:18.428Z,10.50
2023-04-12T23:36:05.981Z,10.67
2023-04-12T23:38:55.239Z,11.50
2023-04-12T23:41:42.590Z,12.40
2023-04-12T23:44:30.828Z,12.97
2023-04-12T23:47:18.155Z,14.33
2023-04-12T23:50:07.383Z,12.27
2023-04-12T23:52:54.767Z,12.03
2023-04-12T23:55:42.467Z,12.53
2023-04-12T23:58:29.835Z,10.27
